Time;durP1;ratioP1;P1;durP2;ratioP2;P2;SDS_P1;SDS_P2;PMS_P1;PMS_P2;Temp;Humidity;BMP_temperature;BMP_pressure;BME280_temperature;BME280_humidity;BME280_pressure;Samples;Min_cycle;Max_cycle;Signal;HPM_P1;HPM_P2
2021/09/07 00:01:44;;;;;;;1999.90;999.90;;;;;;;14.40;44.75;101925.88;5060938;27;97796;-74
2021/09/07 00:04:12;;;;;;;1999.90;999.90;;;;;;;14.41;44.69;101920.56;5094398;27;97736;-75
2021/09/07 00:06:40;;;;;;;1999.90;999.90;;;;;;;14.41;44.99;101923.22;5081263;27;99343;-75
2021/09/07 00:09:09;;;;;;;1999.90;999.90;;;;;;;14.42;44.73;101913.44;5059652;27;99195;-75
2021/09/07 00:11:37;;;;;;;1999.90;999.90;;;;;;;14.43;44.85;101916.13;5096608;27;97189;-74
2021/09/07 00:14:05;;;;;;;1999.90;999.90;;;;;;;14.43;45.02;101921.50;5078467;27;97140;-75
2021/09/07 00:16:33;;;;;;;1999.90;999.90;;;;;;;14.43;45.06;101921.50;5096040;27;99000;-75
2021/09/07 00:19:01;;;;;;;1999.90;999.90;;;;;;;14.44;44.93;101923.31;5095441;27;97571;-74
2021/09/07 00:21:42;;;;;;;1999.90;999.90;;;;;;;14.44;45.03;101922.41;5091272;27;97592;-75
2021/09/07 00:24:11;;;;;;;1999.90;999.90;;;;;;;14.44;44.78;101922.41;5093039;27;97632;-74
2021/09/07 00:26:39;;;;;;;1999.90;999.90;;;;;;;14.44;44.71;101925.09;5098387;27;98086;-73
2021/09/07 00:29:07;;;;;;;1999.90;999.90;;;;;;;14.43;44.71;101925.94;5070512;27;98720;-74
2021/09/07 00:31:35;;;;;;;1999.90;999.90;;;;;;;14.43;44.99;101931.28;5098985;27;96726;-74
2021/09/07 00:34:03;;;;;;;1999.90;999.90;;;;;;;14.43;44.91;101926.84;5093913;27;96924;-74
2021/09/07 00:36:30;;;;;;;1999.90;999.90;;;;;;;14.37;45.10;101921.34;5055154;27;99616;-74
2021/09/07 00:38:58;;;;;;;1999.90;999.90;;;;;;;14.36;45.10;101918.63;5076448;27;98964;-75
2021/09/07 00:41:27;;;;;;;1999.90;999.90;;;;;;;14.36;44.91;101918.63;5079213;27;97205;-74
2021/09/07 00:43:55;;;;;;;1999.90;999.90;;;;;;;14.37;44.92;101915.97;5097565;27;97043;-74
2021/09/07 00:46:23;;;;;;;1999.90;999.90;;;;;;;14.38;45.04;101914.22;5082564;27;98085;-74
2021/09/07 00:48:50;;;;;;;1999.90;999.90;;;;;;;14.38;45.15;101904.41;5078109;27;99271;-74
2021/09/07 00:51:20;;;;;;;1999.90;999.90;;;;;;;14.39;45.07;101906.22;5079151;27;97476;-74
2021/09/07 00:53:48;;;;;;;1999.90;999.90;;;;;;;14.39;44.78;101898.19;5073966;27;97392;-74
2021/09/07 00:56:16;;;;;;;1999.90;999.90;;;;;;;14.39;45.08;101900.84;5092897;27;98928;-74
2021/09/07 00:58:46;;;;;;;1999.90;999.90;;;;;;;14.38;44.87;101901.75;5097920;27;97592;-74
2021/09/07 01:01:14;;;;;;;1999.90;999.90;;;;;;;14.37;45.00;101896.34;5081131;27;96684;-76
2021/09/07 01:03:42;;;;;;;1999.90;999.90;;;;;;;14.36;44.89;101897.22;5095356;27;97909;-76
2021/09/07 01:06:11;;;;;;;1999.90;999.90;;;;;;;14.35;44.93;101893.66;5075548;27;97648;-74
2021/09/07 01:08:39;;;;;;;1999.90;999.90;;;;;;;14.35;45.10;101907.03;5098951;27;98763;-75
2021/09/07 01:11:07;;;;;;;1999.90;999.90;;;;;;;14.33;44.90;101891.78;5076478;27;97124;-74
2021/09/07 01:13:36;;;;;;;1999.90;999.90;;;;;;;14.34;45.03;101896.25;5097148;27;96842;-74
2021/09/07 01:16:07;;;;;;;1999.90;999.90;;;;;;;14.33;45.07;101895.38;5082787;27;100745;-74
2021/09/07 01:18:35;;;;;;;1999.90;999.90;;;;;;;14.33;44.92;101891.78;5062102;27;100039;-74
2021/09/07 01:21:09;;;;;;;1999.90;999.90;;;;;;;14.32;44.96;101893.56;5060901;27;96960;-74
2021/09/07 01:23:37;;;;;;;1999.90;999.90;;;;;;;14.31;45.23;101891.75;5081223;27;97092;-74
2021/09/07 01:26:06;;;;;;;1999.90;999.90;;;;;;;14.30;45.14;101897.97;5084514;27;97915;-74
2021/09/07 01:28:34;;;;;;;1999.90;999.90;;;;;;;14.30;45.17;101902.44;5097540;27;98850;-74
2021/09/07 01:31:03;;;;;;;1999.90;999.90;;;;;;;14.27;44.86;101900.59;5095685;27;96732;-74
2021/09/07 01:33:33;;;;;;;1999.90;999.90;;;;;;;14.26;45.25;101898.78;5094328;27;96987;-74
2021/09/07 01:36:01;;;;;;;1999.90;999.90;;;;;;;14.25;45.44;101906.75;5101038;27;97600;-74
2021/09/07 01:38:31;;;;;;;1999.90;999.90;;;;;;;14.20;45.19;101905.75;5080053;27;101009;-75
2021/09/07 01:40:59;;;;;;;1999.90;999.90;;;;;;;14.15;45.40;101897.63;5100912;27;97893;-75
2021/09/07 01:43:28;;;;;;;1999.90;999.90;;;;;;;14.08;45.54;101888.53;5082818;27;97934;-75
2021/09/07 01:45:56;;;;;;;1999.90;999.90;;;;;;;14.07;45.62;101904.56;5103587;27;97694;-75
2021/09/07 01:48:25;;;;;;;1999.90;999.90;;;;;;;14.08;45.52;101898.31;5062284;27;101606;-75
2021/09/07 01:50:54;;;;;;;1999.90;999.90;;;;;;;14.06;45.36;101900.09;5083471;27;97209;-75
2021/09/07 01:53:21;;;;;;;1999.90;999.90;;;;;;;14.06;45.53;101897.41;5062232;27;97198;-75
2021/09/07 01:55:50;;;;;;;1999.90;999.90;;;;;;;14.06;45.37;101903.63;5094821;27;97808;-75
2021/09/07 01:58:18;;;;;;;1999.90;999.90;;;;;;;14.07;45.64;101905.47;5076980;27;99896;-75
2021/09/07 02:00:47;;;;;;;1999.90;999.90;;;;;;;14.09;45.25;101898.38;5077925;27;96827;-75
2021/09/07 02:03:16;;;;;;;1999.90;999.90;;;;;;;14.07;45.68;101900.13;5059039;27;97234;-75
2021/09/07 02:05:44;;;;;;;1999.90;999.90;;;;;;;14.07;45.46;101902.78;5073879;27;99682;-75
2021/09/07 02:08:13;;;;;;;1999.90;999.90;;;;;;;14.07;45.63;101893.84;5074369;27;101414;-75
2021/09/07 02:10:41;;;;;;;1999.90;999.90;;;;;;;14.07;45.68;101892.09;5082461;27;96978;-75
2021/09/07 02:13:09;;;;;;;1999.90;999.90;;;;;;;14.07;45.51;101893.84;5101965;27;96923;-75
2021/09/07 02:15:36;;;;;;;1999.90;999.90;;;;;;;14.06;45.76;101892.06;5081639;27;99999;-75
2021/09/07 02:18:06;;;;;;;1999.90;999.90;;;;;;;14.05;45.90;101888.47;5080960;27;99393;-75
2021/09/07 02:20:34;;;;;;;1999.90;999.90;;;;;;;14.04;45.79;101888.44;5076030;27;99847;-75
2021/09/07 02:23:05;;;;;;;1999.90;999.90;;;;;;;14.01;46.08;101875.88;5063327;27;97282;-75
2021/09/07 02:25:33;;;;;;;1999.90;999.90;;;;;;;14.00;46.01;101881.19;5075515;27;100537;-74
2021/09/07 02:28:02;;;;;;;1999.90;999.90;;;;;;;14.00;46.22;101876.75;5098363;27;97637;-75
2021/09/07 02:30:31;;;;;;;1999.90;999.90;;;;;;;13.98;46.06;101875.81;5093613;27;96900;-74
2021/09/07 02:33:04;;;;;;;1999.90;999.90;;;;;;;13.98;46.13;101872.22;5077128;27;96702;-74
2021/09/07 02:35:34;;;;;;;1999.90;999.90;;;;;;;13.97;46.17;101875.72;5084817;27;100195;-74
2021/09/07 02:38:04;;;;;;;1999.90;999.90;;;;;;;13.97;46.01;101879.31;5094517;27;99682;-75
2021/09/07 02:40:32;;;;;;;1999.90;999.90;;;;;;;13.94;46.27;101881.94;5078768;27;97547;-74
2021/09/07 02:43:01;;;;;;;1999.90;999.90;;;;;;;13.90;46.35;101890.75;5082059;27;97447;-75
2021/09/07 02:45:29;;;;;;;1999.90;999.90;;;;;;;13.90;46.45;101893.44;5079621;27;98940;-75
2021/09/07 02:47:57;;;;;;;1999.90;999.90;;;;;;;13.86;46.30;101886.19;5075983;27;98797;-77
2021/09/07 02:50:26;;;;;;;1999.90;999.90;;;;;;;13.83;46.49;101882.53;5076379;27;97354;-75
2021/09/07 02:52:55;;;;;;;1999.90;999.90;;;;;;;13.78;46.28;101871.69;5062925;27;97452;-75
2021/09/07 02:55:22;;;;;;;1999.90;999.90;;;;;;;13.75;46.50;101876.06;5078026;27;100827;-75
2021/09/07 02:57:50;;;;;;;1999.90;999.90;;;;;;;13.70;46.59;101881.28;5062512;27;100564;-75
2021/09/07 03:00:18;;;;;;;1999.90;999.90;;;;;;;13.64;46.60;101870.41;5059854;27;97957;-74
2021/09/07 03:02:46;;;;;;;1999.90;999.90;;;;;;;13.67;46.68;101874.94;5093480;27;97424;-73
2021/09/07 03:05:14;;;;;;;1999.90;999.90;;;;;;;13.61;46.81;101873.03;5100505;27;97872;-74
2021/09/07 03:07:42;;;;;;;1999.90;999.90;;;;;;;13.59;46.85;101882.75;5094495;27;97588;-75
2021/09/07 03:10:12;;;;;;;1999.90;999.90;;;;;;;13.59;46.82;101881.84;5067534;27;96781;-74
2021/09/07 03:12:40;;;;;;;1999.90;999.90;;;;;;;13.59;46.91;101888.13;5076262;27;97065;-74
2021/09/07 03:15:10;;;;;;;1999.90;999.90;;;;;;;13.58;47.03;101891.66;5092398;27;99195;-74
2021/09/07 03:17:38;;;;;;;1999.90;999.90;;;;;;;13.62;46.88;101888.19;5071380;27;100412;-74
2021/09/07 03:20:07;;;;;;;1999.90;999.90;;;;;;;13.57;47.03;101897.00;5058669;27;97253;-74
2021/09/07 03:22:35;;;;;;;1999.90;999.90;;;;;;;13.61;46.83;101890.81;5083702;27;98289;-74
2021/09/07 03:25:04;;;;;;;1999.90;999.90;;;;;;;13.53;46.97;101895.97;5095145;27;97368;-74
2021/09/07 03:27:34;;;;;;;1999.90;999.90;;;;;;;13.49;47.10;101891.44;5084959;27;99280;-75
2021/09/07 03:30:03;;;;;;;1999.90;999.90;;;;;;;13.41;47.19;101892.97;5058886;27;97801;-75
2021/09/07 03:32:31;;;;;;;1999.90;999.90;;;;;;;13.41;47.11;101890.31;5059609;27;97630;-75
2021/09/07 03:35:00;;;;;;;1999.90;999.90;;;;;;;13.38;47.19;101890.22;5095778;27;97986;-75
2021/09/07 03:37:27;;;;;;;1999.90;999.90;;;;;;;13.32;47.36;101900.75;5080867;27;97610;-75
2021/09/07 03:39:55;;;;;;;1999.90;999.90;;;;;;;13.28;47.39;101896.19;5102343;27;97784;-74
2021/09/07 03:42:24;;;;;;;1999.90;999.90;;;;;;;13.28;47.45;101901.53;5097918;27;97150;-75
2021/09/07 03:44:53;;;;;;;1999.90;999.90;;;;;;;13.27;47.35;101905.06;5079543;27;98769;-74
2021/09/07 03:47:21;;;;;;;1999.90;999.90;;;;;;;13.27;47.38;101902.41;5065230;27;100298;-74
2021/09/07 03:49:49;;;;;;;1999.90;999.90;;;;;;;13.24;47.41;101904.09;5107507;27;96762;-74
2021/09/07 03:52:19;;;;;;;1999.90;999.90;;;;;;;13.24;47.62;101921.00;5076555;27;97023;-74
2021/09/07 03:54:47;;;;;;;1999.90;999.90;;;;;;;13.23;47.62;101908.50;5067096;27;100350;-74
2021/09/07 03:57:15;;;;;;;1999.90;999.90;;;;;;;13.21;47.53;101912.91;5052362;27;99202;-74
2021/09/07 03:59:44;;;;;;;1999.90;999.90;;;;;;;13.20;47.62;101904.84;5074432;27;98031;-74
2021/09/07 04:02:13;;;;;;;1999.90;999.90;;;;;;;13.25;47.49;101909.47;5066725;27;98376;-74
2021/09/07 04:04:42;;;;;;;1999.90;999.90;;;;;;;13.20;47.67;101913.78;5074308;27;98108;-73
2021/09/07 04:07:11;;;;;;;1999.90;999.90;;;;;;;13.18;47.62;101912.84;5087184;27;98725;-73
2021/09/07 04:09:39;;;;;;;1999.90;999.90;;;;;;;13.18;47.62;101921.72;5070423;27;97693;-73
2021/09/07 04:12:08;;;;;;;1999.90;999.90;;;;;;;13.17;47.55;101919.94;5072426;27;97387;-73
2021/09/07 04:14:37;;;;;;;1999.90;999.90;;;;;;;13.17;47.63;101916.34;5071812;27;99208;-73
2021/09/07 04:17:06;;;;;;;1999.90;999.90;;;;;;;13.17;47.63;101925.28;5084182;27;98181;-72
2021/09/07 04:19:35;;;;;;;1999.90;999.90;;;;;;;13.17;47.67;101924.38;5052558;27;96817;-72
2021/09/07 04:22:05;;;;;;;1999.90;999.90;;;;;;;13.16;47.68;101933.25;5063158;27;97382;-72
2021/09/07 04:24:32;;;;;;;1999.90;999.90;;;;;;;13.17;47.73;101935.97;5077869;27;99327;-72
2021/09/07 04:27:00;;;;;;;1999.90;999.90;;;;;;;13.18;47.78;101931.53;5071780;27;99322;-73
2021/09/07 04:29:28;;;;;;;1999.90;999.90;;;;;;;13.18;47.70;101931.53;5067869;27;97156;-73
2021/09/07 04:31:56;;;;;;;1999.90;999.90;;;;;;;13.19;47.68;101936.00;5070402;27;98324;-72
2021/09/07 04:34:24;;;;;;;1999.90;999.90;;;;;;;13.18;47.76;101937.78;5069981;27;99704;-75
2021/09/07 04:36:53;;;;;;;1999.90;999.90;;;;;;;13.21;47.75;101938.72;5062628;27;99237;-75
2021/09/07 04:39:20;;;;;;;1999.90;999.90;;;;;;;13.22;47.75;101937.88;5053419;27;98246;-75
2021/09/07 04:41:48;;;;;;;1999.90;999.90;;;;;;;13.22;47.80;101938.78;5066375;27;97399;-75
2021/09/07 04:44:19;;;;;;;1999.90;999.90;;;;;;;13.23;47.68;101942.34;5063152;27;99521;-75
2021/09/07 04:46:48;;;;;;;1999.90;999.90;;;;;;;13.22;47.77;101943.22;5083022;27;97746;-75
2021/09/07 04:49:16;;;;;;;1999.90;999.90;;;;;;;13.22;47.81;101940.56;5073028;27;97828;-74
2021/09/07 04:51:44;;;;;;;1999.90;999.90;;;;;;;13.22;47.67;101943.22;5092603;27;98700;-79
2021/09/07 04:54:13;;;;;;;1999.90;999.90;;;;;;;13.24;47.75;101937.03;5073325;27;97821;-73
2021/09/07 04:56:41;;;;;;;1999.90;999.90;;;;;;;13.23;47.78;101937.91;5069935;27;99521;-74
2021/09/07 04:59:09;;;;;;;1999.90;999.90;;;;;;;13.23;47.77;101935.25;5074865;27;97494;-74
2021/09/07 05:01:37;;;;;;;1999.90;999.90;;;;;;;13.25;47.88;101935.28;5071942;27;97341;-74
2021/09/07 05:04:05;;;;;;;1999.90;999.90;;;;;;;13.24;47.76;101942.38;5091258;27;98720;-74
2021/09/07 05:06:33;;;;;;;1999.90;999.90;;;;;;;13.26;47.78;101945.13;5085499;27;99262;-75
2021/09/07 05:09:01;;;;;;;1999.90;999.90;;;;;;;13.26;47.73;101948.69;5069412;27;97135;-73
2021/09/07 05:11:30;;;;;;;1999.90;999.90;;;;;;;13.24;47.82;101942.38;5075583;27;98023;-74
2021/09/07 05:13:57;;;;;;;1999.90;999.90;;;;;;;13.26;47.80;101955.81;5090544;27;99287;-74
2021/09/07 05:16:25;;;;;;;1999.90;999.90;;;;;;;13.23;47.84;101951.28;5066365;27;99223;-75
2021/09/07 05:18:53;;;;;;;1999.90;999.90;;;;;;;13.22;47.95;101956.59;5081371;27;98265;-76
2021/09/07 05:21:21;;;;;;;1999.90;999.90;;;;;;;13.23;47.96;101963.75;5068638;27;97063;-76
2021/09/07 05:23:49;;;;;;;1999.90;999.90;;;;;;;13.22;47.93;101961.94;5070234;27;98296;-76
2021/09/07 05:26:16;;;;;;;1999.90;999.90;;;;;;;13.23;47.73;101966.41;5090146;27;98730;-75
2021/09/07 05:28:45;;;;;;;1999.90;999.90;;;;;;;13.24;47.95;101960.22;5068526;27;98277;-75
2021/09/07 05:31:17;;;;;;;1999.90;999.90;;;;;;;13.25;47.96;101954.00;5089328;27;97380;-75
2021/09/07 05:33:44;;;;;;;1999.90;999.90;;;;;;;13.27;47.94;101962.97;5089182;27;98946;-75
2021/09/07 05:36:12;;;;;;;1999.90;999.90;;;;;;;13.27;47.97;101961.22;5087831;27;97344;-75
2021/09/07 05:38:40;;;;;;;1999.90;999.90;;;;;;;13.27;47.92;101966.56;5074798;27;96963;-75
2021/09/07 05:41:08;;;;;;;1999.90;999.90;;;;;;;13.29;48.01;101970.19;5089708;27;97356;-75
2021/09/07 05:43:35;;;;;;;1999.90;999.90;;;;;;;13.31;47.85;101972.91;5070297;27;98372;-74
2021/09/07 05:46:04;;;;;;;1999.90;999.90;;;;;;;13.34;47.73;101975.66;5072526;27;100752;-75
2021/09/07 05:48:32;;;;;;;1999.90;999.90;;;;;;;13.33;47.91;101971.19;5070055;27;97720;-75
2021/09/07 05:51:00;;;;;;;1999.90;999.90;;;;;;;13.34;47.79;101973.88;5075234;27;99236;-75
2021/09/07 05:53:28;;;;;;;1999.90;999.90;;;;;;;13.37;47.96;101973.09;5073429;27;99606;-74
2021/09/07 05:55:56;;;;;;;1999.90;999.90;;;;;;;13.38;47.80;101978.47;5074190;27;99258;-75
2021/09/07 05:58:24;;;;;;;1999.90;999.90;;;;;;;13.39;47.96;101974.91;5088186;27;97815;-74
2021/09/07 06:00:52;;;;;;;1999.90;999.90;;;;;;;13.38;47.94;101977.56;5088509;27;97736;-76
2021/09/07 06:03:21;;;;;;;1999.90;999.90;;;;;;;13.39;47.85;101974.91;5072784;27;98256;-77
2021/09/07 06:05:50;;;;;;;1999.90;999.90;;;;;;;13.43;47.91;101975.91;5073793;27;99542;-76
2021/09/07 06:08:18;;;;;;;1999.90;999.90;;;;;;;13.44;47.83;101977.75;5089994;27;96871;-76
2021/09/07 06:10:46;;;;;;;1999.90;999.90;;;;;;;13.44;47.78;101983.09;5070321;27;97660;-76
2021/09/07 06:13:13;;;;;;;1999.90;999.90;;;;;;;13.45;47.76;101984.88;5070012;27;99713;-77
2021/09/07 06:15:42;;;;;;;1999.90;999.90;;;;;;;13.42;48.18;101972.34;5068814;27;99312;-76
2021/09/07 06:18:10;;;;;;;1999.90;999.90;;;;;;;13.41;48.01;101977.63;5075149;27;97639;-75
2021/09/07 06:20:39;;;;;;;1999.90;999.90;;;;;;;13.42;47.99;101975.03;5074386;27;97667;-76
2021/09/07 06:23:07;;;;;;;1999.90;999.90;;;;;;;13.44;48.08;101985.75;5065771;27;101092;-76
2021/09/07 06:25:34;;;;;;;1999.90;999.90;;;;;;;13.46;48.08;101978.69;5093201;27;97833;-76
2021/09/07 06:28:02;;;;;;;1999.90;999.90;;;;;;;13.50;48.00;101980.56;5092250;27;97198;-76
2021/09/07 06:30:30;;;;;;;1999.90;999.90;;;;;;;13.52;48.07;101973.50;5089499;27;97394;-75
2021/09/07 06:32:58;;;;;;;1999.90;999.90;;;;;;;13.53;48.00;101981.56;5055688;27;100218;-77
2021/09/07 06:35:26;;;;;;;1999.90;999.90;;;;;;;13.56;47.89;101976.31;5072986;27;100599;-76
2021/09/07 06:37:55;;;;;;;1999.90;999.90;;;;;;;13.54;47.97;101979.78;5096382;27;97705;-76
2021/09/07 06:40:23;;;;;;;1999.90;999.90;;;;;;;13.49;48.21;101987.69;5060666;27;97218;-78
2021/09/07 06:42:51;;;;;;;1999.90;999.90;;;;;;;13.42;48.50;101985.72;5092507;27;98735;-75
2021/09/07 06:45:18;;;;;;;1999.90;999.90;;;;;;;13.32;48.49;101985.38;5088107;27;97832;-76
2021/09/07 06:47:46;;;;;;;1999.90;999.90;;;;;;;13.22;48.78;101994.94;5075616;27;97300;-74
2021/09/07 06:50:14;;;;;;;1999.90;999.90;;;;;;;13.16;48.97;101994.75;5074170;27;97530;-77
2021/09/07 06:52:42;;;;;;;1999.90;999.90;;;;;;;13.14;48.94;102005.41;5074210;27;99903;-76
2021/09/07 06:55:11;;;;;;;1999.90;999.90;;;;;;;13.22;48.98;101996.69;5087219;27;97980;-75
2021/09/07 06:57:39;;;;;;;1999.90;999.90;;;;;;;13.27;48.92;102005.75;5076643;27;97032;-76
2021/09/07 07:00:09;;;;;;;1999.90;999.90;;;;;;;13.28;48.76;102002.19;5074391;27;96915;-77
2021/09/07 07:02:39;;;;;;;1999.90;999.90;;;;;;;13.33;48.85;102006.81;5053320;27;100613;-76
2021/09/07 07:05:08;;;;;;;1999.90;999.90;;;;;;;13.41;48.71;102010.63;5091979;27;97760;-76
2021/09/07 07:07:36;;;;;;;1999.90;999.90;;;;;;;13.47;48.56;102007.22;5073076;27;97464;-75
2021/09/07 07:10:05;;;;;;;1999.90;999.90;;;;;;;13.54;48.49;102011.88;5072935;27;99060;-77
2021/09/07 07:12:35;;;;;;;1999.90;999.90;;;;;;;13.62;48.41;102010.34;5071397;27;99238;-75
2021/09/07 07:15:02;;;;;;;1999.90;999.90;;;;;;;13.68;48.49;102016.75;5072744;27;99145;-76
2021/09/07 07:17:30;;;;;;;1999.90;999.90;;;;;;;13.73;48.32;102012.44;5072091;27;97338;-75
2021/09/07 07:19:58;;;;;;;1999.90;999.90;;;;;;;13.78;48.14;102010.81;5070562;27;97882;-77
2021/09/07 07:22:26;;;;;;;1999.90;999.90;;;;;;;13.83;48.14;102016.31;5055973;27;99306;-76
2021/09/07 07:24:54;;;;;;;1999.90;999.90;;;;;;;13.84;48.14;102013.66;5075517;27;98770;-75
2021/09/07 07:27:23;;;;;;;1999.90;999.90;;;;;;;13.88;48.20;102009.31;5076163;27;98859;-75
2021/09/07 07:29:52;;;;;;;1999.90;999.90;;;;;;;13.86;48.44;102009.28;5071300;27;97724;-76
2021/09/07 07:32:20;;;;;;;1999.90;999.90;;;;;;;13.83;48.35;102010.97;5076963;27;99466;-74
2021/09/07 07:34:48;;;;;;;1999.90;999.90;;;;;;;13.83;48.40;102010.97;5071388;27;97951;-76
2021/09/07 07:37:15;;;;;;;1999.90;999.90;;;;;;;13.81;48.40;102018.94;5090904;27;97732;-76
2021/09/07 07:39:43;;;;;;;1999.90;999.90;;;;;;;13.85;48.45;102017.25;5095812;27;97103;-76
2021/09/07 07:42:11;;;;;;;1999.90;999.90;;;;;;;13.89;48.58;102021.84;5087895;27;97144;-77
2021/09/07 07:44:39;;;;;;;1999.90;999.90;;;;;;;13.91;48.46;102021.03;5090324;27;98543;-78
2021/09/07 07:47:08;;;;;;;1999.90;999.90;;;;;;;13.93;48.45;102013.91;5095576;27;97640;-77
2021/09/07 07:49:37;;;;;;;1999.90;999.90;;;;;;;13.94;48.37;102018.44;5076759;27;97813;-78
2021/09/07 07:52:05;;;;;;;1999.90;999.90;;;;;;;13.97;48.38;102021.19;5059169;27;99682;-77
2021/09/07 07:54:34;;;;;;;1999.90;999.90;;;;;;;14.04;48.37;102023.16;5092959;27;99202;-76
2021/09/07 07:57:02;;;;;;;1999.90;999.90;;;;;;;14.12;48.11;102021.59;5075881;27;97410;-76
2021/09/07 07:59:30;;;;;;;1999.90;999.90;;;;;;;14.20;47.95;102020.88;5071758;27;98162;-77
2021/09/07 08:01:58;;;;;;;1999.90;999.90;;;;;;;14.26;48.03;102019.28;5076865;27;100769;-76
2021/09/07 08:04:35;;;;;;;1999.90;999.90;;;;;;;14.36;47.71;102025.75;5087896;27;98195;-76
2021/09/07 08:07:03;;;;;;;1999.90;999.90;;;;;;;14.42;47.82;102025.91;5068926;27;98199;-76
2021/09/07 08:09:31;;;;;;;1999.90;999.90;;;;;;;14.48;47.28;102029.63;5071109;27;97199;-76
2021/09/07 08:11:59;;;;;;;1999.90;999.90;;;;;;;14.55;47.45;102034.34;5072422;27;98063;-76
2021/09/07 08:14:27;;;;;;;1999.90;999.90;;;;;;;14.61;47.36;102030.91;5091933;27;98095;-76
2021/09/07 08:16:55;;;;;;;1999.90;999.90;;;;;;;14.65;46.98;102035.44;5090336;27;97845;-76
2021/09/07 08:19:23;;;;;;;1999.90;999.90;;;;;;;14.70;46.94;102033.81;5065349;27;97593;-76
2021/09/07 08:21:52;;;;;;;1999.90;999.90;;;;;;;14.71;47.09;102035.63;5071019;27;97823;-76
2021/09/07 08:24:19;;;;;;;1999.90;999.90;;;;;;;14.74;47.04;102035.66;5085088;27;99715;-76
2021/09/07 08:26:47;;;;;;;1999.90;999.90;;;;;;;14.77;46.78;102036.66;5061684;27;97290;-76
2021/09/07 08:29:15;;;;;;;1999.90;999.90;;;;;;;14.77;46.88;102041.13;5048812;27;97810;-76
2021/09/07 08:31:42;;;;;;;1999.90;999.90;;;;;;;14.80;46.82;102039.41;5064393;27;99491;-76
2021/09/07 08:34:10;;;;;;;1999.90;999.90;;;;;;;14.79;47.11;102042.94;5083495;27;98369;-77
2021/09/07 08:36:38;;;;;;;1999.90;999.90;;;;;;;14.78;47.21;102045.59;5087324;27;97323;-76
2021/09/07 08:39:07;;;;;;;1999.90;999.90;;;;;;;14.78;46.99;102037.56;5052296;27;97080;-78
2021/09/07 08:41:35;;;;;;;1999.90;999.90;;;;;;;14.79;47.34;102039.41;5069489;27;99324;-74
2021/09/07 08:44:03;;;;;;;1999.90;999.90;;;;;;;14.80;46.85;102036.75;5084585;27;97399;-76
2021/09/07 08:46:32;;;;;;;1999.90;999.90;;;;;;;14.85;47.18;102034.16;5070514;27;97124;-77
2021/09/07 08:49:12;;;;;;;1999.90;999.90;;;;;;;14.90;47.05;102038.75;5072741;27;97940;-76
2021/09/07 08:51:40;;;;;;;1999.90;999.90;;;;;;;14.95;46.82;102036.19;5080896;27;98140;-76
2021/09/07 08:54:10;;;;;;;1999.90;999.90;;;;;;;14.99;46.30;102038.97;5067152;27;99443;-76
2021/09/07 08:56:37;;;;;;;1999.90;999.90;;;;;;;15.04;46.51;102040.00;5068127;27;96762;-76
2021/09/07 08:59:06;;;;;;;1999.90;999.90;;;;;;;15.10;46.20;102041.91;5070024;27;98255;-76
2021/09/07 09:01:38;;;;;;;1999.90;999.90;;;;;;;15.14;46.12;102038.41;5087588;27;98083;-77
2021/09/07 09:04:06;;;;;;;1999.90;999.90;;;;;;;15.19;46.08;102036.75;5068854;27;98319;-75
2021/09/07 09:06:34;;;;;;;1999.90;999.90;;;;;;;15.24;45.65;102040.44;5069197;27;97584;-77
2021/09/07 09:09:04;;;;;;;1999.90;999.90;;;;;;;15.28;45.62;102041.41;5087620;27;98090;-77
2021/09/07 09:11:51;;;;;;;1999.90;999.90;;;;;;;15.29;44.97;102036.09;5067945;27;97221;-76
2021/09/07 09:14:36;;;;;;;1999.90;999.90;;;;;;;15.29;44.95;102037.84;5046691;27;99416;-77
2021/09/07 09:17:23;;;;;;;1999.90;999.90;;;;;;;15.30;44.96;102037.94;5074438;27;97482;-75
2021/09/07 09:19:53;;;;;;;1999.90;999.90;;;;;;;15.35;45.59;102040.69;5084155;27;97818;-75
2021/09/07 09:22:22;;;;;;;1999.90;999.90;;;;;;;15.36;45.14;102034.44;5086439;27;96794;-76
2021/09/07 09:24:50;;;;;;;1999.90;999.90;;;;;;;15.38;45.30;102032.69;5084775;27;97568;-76
2021/09/07 09:27:21;;;;;;;1999.90;999.90;;;;;;;15.40;45.07;102030.97;5065927;27;97034;-77
2021/09/07 09:29:50;;;;;;;1999.90;999.90;;;;;;;15.43;45.11;102029.25;5069759;27;98269;-76
2021/09/07 09:32:24;;;;;;;1999.90;999.90;;;;;;;15.46;45.02;102031.09;5066821;27;100760;-76
2021/09/07 09:34:52;;;;;;;1999.90;999.90;;;;;;;15.45;44.88;102023.94;5085775;27;98909;-76
2021/09/07 09:37:20;;;;;;;1999.90;999.90;;;;;;;15.41;44.97;102032.78;5050422;27;97044;-76
2021/09/07 09:39:49;;;;;;;1999.90;999.90;;;;;;;15.36;44.76;102024.63;5071157;27;98093;-76
2021/09/07 09:42:24;;;;;;;1999.90;999.90;;;;;;;15.34;44.78;102018.31;5070553;27;98605;-76
2021/09/07 09:45:01;;;;;;;1999.90;999.90;;;;;;;15.28;44.02;102019.94;5091163;27;97438;-75
2021/09/07 09:47:34;;;;;;;1999.90;999.90;;;;;;;15.29;44.60;102016.38;5071754;27;97787;-76
2021/09/07 09:50:03;;;;;;;1999.90;999.90;;;;;;;15.33;44.70;102013.84;5058073;27;97526;-77
2021/09/07 09:52:32;;;;;;;1999.90;999.90;;;;;;;15.36;44.85;102024.63;5053776;27;99325;-77
2021/09/07 09:55:00;;;;;;;1999.90;999.90;;;;;;;15.40;44.64;102023.81;5091962;27;97715;-76
2021/09/07 09:57:30;;;;;;;1999.90;999.90;;;;;;;15.44;44.10;102028.38;5091839;27;97767;-74
2021/09/07 10:00:01;;;;;;;1999.90;999.90;;;;;;;15.48;44.34;102026.69;5066233;27;97258;-76
2021/09/07 10:02:38;;;;;;;1999.90;999.90;;;;;;;15.54;44.28;102024.13;5071808;27;101725;-76
2021/09/07 10:05:08;;;;;;;1999.90;999.90;;;;;;;15.59;44.34;102025.13;5088600;27;97929;-77
2021/09/07 10:07:40;;;;;;;1999.90;999.90;;;;;;;15.65;44.12;102019.88;5073382;27;97571;-76
2021/09/07 10:10:09;;;;;;;1999.90;999.90;;;;;;;15.72;43.93;102022.69;5087301;27;97705;-76
2021/09/07 10:12:42;;;;;;;1999.90;999.90;;;;;;;15.81;44.02;102020.19;5091279;27;97489;-76
2021/09/07 10:15:18;;;;;;;1999.90;999.90;;;;;;;15.87;43.73;102020.31;5069693;27;100399;-75
2021/09/07 10:17:48;;;;;;;1999.90;999.90;;;;;;;15.89;43.87;102017.66;5067289;27;97327;-75
2021/09/07 10:20:46;;;;;;;1999.90;999.90;;;;;;;15.95;43.68;102007.03;5070190;27;96909;-76
2021/09/07 10:25:58;;;;;;;1999.90;999.90;;;;;;;16.05;43.68;102018.00;5067797;27;100458;-77
2021/09/07 10:28:31;;;;;;;1999.90;999.90;;;;;;;16.09;43.31;102021.66;5062130;27;99006;-76
2021/09/07 10:31:02;;;;;;;1999.90;999.90;;;;;;;16.15;43.54;102010.09;5070664;27;96700;-77
2021/09/07 10:33:35;;;;;;;1999.90;999.90;;;;;;;16.18;43.38;102012.88;5091087;27;97886;-75
2021/09/07 10:36:12;;;;;;;1999.90;999.90;;;;;;;16.21;42.92;102007.53;5079669;27;100275;-75
2021/09/07 10:38:41;;;;;;;1999.90;999.90;;;;;;;16.25;43.28;102017.47;5084170;27;98718;-75
2021/09/07 10:41:10;;;;;;;1999.90;999.90;;;;;;;16.28;43.16;102014.81;5081512;27;97272;-75
2021/09/07 10:43:54;;;;;;;1999.90;999.90;;;;;;;16.23;43.01;102008.47;5067610;27;100579;-75
2021/09/07 10:46:41;;;;;;;1999.90;999.90;;;;;;;16.28;42.77;102001.38;5073283;27;99181;-75
2021/09/07 10:49:21;;;;;;;1999.90;999.90;;;;;;;16.31;42.40;102004.13;5083980;27;97347;-75
2021/09/07 10:52:08;;;;;;;1999.90;999.90;;;;;;;16.36;42.62;102000.63;5071113;27;97179;-75
2021/09/07 10:54:41;;;;;;;1999.90;999.90;;;;;;;16.37;42.62;101990.78;5067105;27;99778;-75
2021/09/07 10:57:09;;;;;;;1999.90;999.90;;;;;;;16.40;42.83;101996.22;5068763;27;99561;-75
2021/09/07 10:59:50;;;;;;;1999.90;999.90;;;;;;;16.42;42.77;102002.50;5065558;27;97850;-76